Etusivu
METAR-TAF:

METAR-TAF

Lentoasemat :

Yap, Yap Island, Mikronesia

Yapin kansainvälinen lentoasema

Leveyspiiri: 09-29N, Pituuspiiri: 138-05E, korkeus merenpinnasta: 28 m

Tämänhetkinen sää

Tämä raportti tehtiin 22 minuuttia sitten, kello 04.50 UTC
Tuuli 8 kn etelästä
Lämpötila 31°C
Kosteus 71%
Ilmanpaine 1007 hPa
Näkyvyys: 19.3 km
Muutamia pilviä 1700 ft:n korkeudessa
Hajanaisia pilviä 13000 ft:n korkeudessa
Hajonneita pilviä 30000 ft:n korkeudessa

METAR: PTYA 210450Z 18008KT 12SM FEW017 SCT130 BKN300 31/25 A2975 RMK SLP074 T03050254

Aika: 15:12 (05:12 UTC)

Sääennuste

Tämä raportti tehtiin 5 tuntia ja 31 minuuttia sitten, kello 23.41 UTC
Ennuste voimassa 21. päivästä klo 00 UTC - 21. päivään klo 24 UTC
Tuuli 5 kn eri suunnista
Näkyvyys: 10 km
Muutamia pilviä 1600 ft:n korkeudessa
Hajonneita pilviä 14000 ft:n korkeudessa
sadekuuroja näköpiirissä

TAF: PTYA 202341Z 2100/2124 VRB05KT P6SM VCSH FEW016 BKN140

Säähavainnot ja -ennusteet yli 4000 lentoasemalta (METAR- ja TAF-raportit).

Käytössä olevat sääasemat on merkitty karttaan keltaisilla ja punaisilla pisteillä.

Aseta hiiri pisteen päälle nähdäksesi sääaseman nimen.

Klikkaa sitten nähdäksesi säähavainnot ja -ennusteet.

Kartan vaihtaminen: klikkaa mustalla rastilla varustettuja vihreitä pisteitä, niin voit zoomata sisään; viivalla varustettua vihreää pistettä, niin voit zoomata ulos tai vihreitä nuolia, niin pääset viereisille kartoille.


METAR-TAF: